createdAt,value
2019-04-05T00:00:15.217Z,3.662
2019-04-05T00:03:15.607Z,1.938
2019-04-05T00:06:15.046Z,2.288
2019-04-05T00:09:15.334Z,2.600
2019-04-05T00:12:15.792Z,1.875
2019-04-05T00:15:16.071Z,2.875
2019-04-05T00:18:14.995Z,2.912
2019-04-05T00:21:15.021Z,4.338
2019-04-05T00:24:15.172Z,3.200
2019-04-05T00:27:15.708Z,1.737
2019-04-05T00:30:15.414Z,3.050
2019-04-05T00:33:15.972Z,2.688
2019-04-05T00:36:15.832Z,3.588
2019-04-05T00:39:15.396Z,3.713
2019-04-05T00:42:15.804Z,2.438
2019-04-05T00:45:27.522Z,4.225
2019-04-05T00:48:15.879Z,3.975
2019-04-05T00:51:15.803Z,3.875
2019-04-05T00:54:15.303Z,4.088
2019-04-05T00:57:15.096Z,2.650
2019-04-05T01:00:15.430Z,1.737
2019-04-05T01:03:15.653Z,3.050
2019-04-05T01:06:15.096Z,5.612
2019-04-05T01:09:15.740Z,4.138
2019-04-05T01:12:15.421Z,3.450
2019-04-05T01:15:15.730Z,4.075
2019-04-05T01:18:15.681Z,2.737
2019-04-05T01:21:15.447Z,2.700
2019-04-05T01:24:15.405Z,3.562
2019-04-05T01:27:15.088Z,4.562
2019-04-05T01:30:15.660Z,4.325
2019-04-05T01:33:15.223Z,3.912
2019-04-05T01:36:15.378Z,4.562
2019-04-05T01:39:15.491Z,2.475
2019-04-05T01:42:15.008Z,2.612
2019-04-05T01:45:15.736Z,2.513
2019-04-05T01:48:15.694Z,2.487
2019-04-05T01:54:15.741Z,2.900
2019-04-05T01:57:15.193Z,2.550
2019-04-05T02:00:15.366Z,2.100
2019-04-05T02:03:15.015Z,2.775
2019-04-05T02:06:14.942Z,2.475
2019-04-05T02:09:15.543Z,3.487
2019-04-05T02:12:15.115Z,3.725
2019-04-05T02:15:15.239Z,2.712
2019-04-05T02:18:15.664Z,2.312
2019-04-05T02:24:15.661Z,6.763
2019-04-05T02:27:15.519Z,4.062
2019-04-05T02:30:15.079Z,2.638
2019-04-05T02:33:15.531Z,3.612
2019-04-05T02:36:15.267Z,2.250
2019-04-05T02:39:15.623Z,4.638
2019-04-05T02:42:15.608Z,6.287
2019-04-05T02:45:15.197Z,11.575
2019-04-05T02:48:15.286Z,3.050
2019-04-05T02:54:15.086Z,3.338
2019-04-05T02:57:14.960Z,2.762
2019-04-05T03:00:15.687Z,3.538
2019-04-05T03:03:15.127Z,4.012
2019-04-05T03:06:15.269Z,3.725
2019-04-05T03:09:15.231Z,4.662
2019-04-05T03:12:18.943Z,4.138
2019-04-05T03:15:15.222Z,3.125
2019-04-05T03:18:15.294Z,5.463
2019-04-05T03:24:15.388Z,5.588
2019-04-05T03:27:15.829Z,5.225
2019-04-05T03:30:15.778Z,5.763
2019-04-05T03:33:15.473Z,6.337
2019-04-05T03:36:15.553Z,5.925
2019-04-05T03:39:15.885Z,2.300
2019-04-05T03:42:15.289Z,3.612
2019-04-05T03:45:15.773Z,3.350
2019-04-05T03:48:15.073Z,4.138
2019-04-05T03:54:15.427Z,5.400
2019-04-05T03:57:15.051Z,1.575
2019-04-05T04:00:14.990Z,4.037
2019-04-05T04:03:15.133Z,2.362
2019-04-05T04:06:15.369Z,2.650
2019-04-05T04:09:15.085Z,4.112
2019-04-05T04:12:15.251Z,5.825
2019-04-05T04:15:15.183Z,4.575
2019-04-05T04:18:15.588Z,3.413
2019-04-05T04:21:15.409Z,4.350
2019-04-05T04:24:15.549Z,2.350
2019-04-05T04:27:15.040Z,4.337
2019-04-05T04:30:15.947Z,4.100
2019-04-05T04:33:15.999Z,3.887
2019-04-05T04:36:15.582Z,4.188
2019-04-05T04:39:15.876Z,3.325
2019-04-05T04:42:15.052Z,3.250
2019-04-05T04:45:15.394Z,7.762
2019-04-05T04:48:15.298Z,3.400
2019-04-05T04:51:15.837Z,3.400
2019-04-05T04:54:15.035Z,2.525
2019-04-05T04:57:15.736Z,3.750
2019-04-05T05:00:15.755Z,4.263
2019-04-05T05:03:15.178Z,2.562
2019-04-05T05:06:15.519Z,3.513
2019-04-05T05:09:15.592Z,5.463
2019-04-05T05:12:15.026Z,3.638
2019-04-05T05:15:15.701Z,3.425
2019-04-05T05:18:15.790Z,5.900
2019-04-05T05:21:15.334Z,5.688
2019-04-05T05:24:15.688Z,15.500
2019-04-05T05:27:15.451Z,4.513
2019-04-05T05:30:15.456Z,2.963
2019-04-05T05:33:15.410Z,2.625
2019-04-05T05:36:16.014Z,5.250
2019-04-05T05:39:15.695Z,3.625
2019-04-05T05:42:15.619Z,4.350
2019-04-05T05:45:15.703Z,4.100
2019-04-05T05:48:15.765Z,4.713
2019-04-05T05:51:15.789Z,3.362
2019-04-05T05:54:15.757Z,3.487
2019-04-05T05:57:15.860Z,2.200
2019-04-05T06:00:15.071Z,3.550
2019-04-05T06:03:16.741Z,4.500
2019-04-05T06:06:15.942Z,2.350
2019-04-05T06:09:14.961Z,4.650
2019-04-05T06:12:15.148Z,5.838
2019-04-05T06:15:15.630Z,2.850
2019-04-05T06:18:15.616Z,3.288
2019-04-05T06:21:15.530Z,2.712
2019-04-05T06:24:15.494Z,2.450
2019-04-05T06:27:15.073Z,5.725
2019-04-05T06:30:15.280Z,2.400
2019-04-05T06:33:15.830Z,4.562
2019-04-05T06:36:15.300Z,2.200
2019-04-05T06:39:15.676Z,2.713
2019-04-05T06:42:15.575Z,5.025
2019-04-05T06:45:15.309Z,4.138
2019-04-05T06:48:19.464Z,2.100
2019-04-05T06:51:15.582Z,3.925
2019-04-05T06:54:15.476Z,2.388
2019-04-05T06:57:15.350Z,3.662
2019-04-05T07:00:15.751Z,3.337
2019-04-05T07:03:15.707Z,7.550
2019-04-05T07:06:15.568Z,2.312
2019-04-05T07:09:15.488Z,4.450
2019-04-05T07:12:15.632Z,4.375
2019-04-05T07:15:15.508Z,4.513
2019-04-05T07:18:15.720Z,2.838
2019-04-05T07:21:17.302Z,3.900
2019-04-05T07:24:15.465Z,3.188
2019-04-05T07:27:15.292Z,6.975
2019-04-05T07:30:15.881Z,3.138
2019-04-05T07:33:15.073Z,3.600
2019-04-05T07:36:15.263Z,3.400
2019-04-05T07:39:15.768Z,4.312
2019-04-05T07:42:15.781Z,1.888
2019-04-05T07:45:15.711Z,4.463
2019-04-05T07:48:15.406Z,3.300
2019-04-05T07:51:15.090Z,5.225
2019-04-05T07:54:15.306Z,3.750
2019-04-05T07:57:15.748Z,3.987
2019-04-05T08:00:15.932Z,3.625
2019-04-05T08:03:15.996Z,8.000
2019-04-05T08:06:15.847Z,7.612
2019-04-05T08:09:15.225Z,3.250
2019-04-05T08:12:15.245Z,5.787
2019-04-05T08:15:15.843Z,5.287
2019-04-05T08:18:15.242Z,3.775
2019-04-05T08:21:15.516Z,3.288
2019-04-05T08:24:15.560Z,4.675
2019-04-05T08:27:15.044Z,4.012
2019-04-05T08:30:15.101Z,3.100
2019-04-05T08:33:15.202Z,4.525
2019-04-05T08:36:15.283Z,4.150
2019-04-05T08:39:15.192Z,4.412
2019-04-05T08:42:15.330Z,3.625
2019-04-05T08:45:15.614Z,3.237
2019-04-05T08:48:15.767Z,3.075
2019-04-05T08:51:15.714Z,2.575
2019-04-05T08:54:15.673Z,3.275
2019-04-05T08:57:15.926Z,2.963
2019-04-05T09:00:15.871Z,2.737
2019-04-05T09:03:15.691Z,6.200
2019-04-05T09:06:15.504Z,3.450
2019-04-05T09:09:15.741Z,3.100
2019-04-05T09:12:15.630Z,4.662
2019-04-05T09:15:15.836Z,8.600
2019-04-05T09:18:15.660Z,5.413
2019-04-05T09:21:17.763Z,4.300
2019-04-05T09:24:15.729Z,2.650
2019-04-05T09:27:15.736Z,6.863
2019-04-05T09:30:15.386Z,3.638
2019-04-05T09:33:15.673Z,4.275
2019-04-05T09:36:15.779Z,4.900
2019-04-05T09:39:16.014Z,2.900
2019-04-05T09:42:15.880Z,8.125
2019-04-05T09:45:15.842Z,7.362
2019-04-05T09:48:16.044Z,3.012
2019-04-05T09:51:16.923Z,6.125
2019-04-05T09:54:15.779Z,4.825
2019-04-05T09:57:15.607Z,10.175
2019-04-05T10:00:15.728Z,6.000
2019-04-05T10:03:15.710Z,3.075
2019-04-05T10:06:15.440Z,5.725
2019-04-05T10:09:15.937Z,2.862
2019-04-05T10:12:15.158Z,4.375
2019-04-05T10:15:15.429Z,7.412
2019-04-05T10:18:15.851Z,2.312
2019-04-05T10:21:15.888Z,7.025
2019-04-05T10:24:15.352Z,8.125
2019-04-05T10:27:15.589Z,5.763
2019-04-05T10:30:15.274Z,4.725
2019-04-05T10:33:15.137Z,5.400
2019-04-05T10:36:15.479Z,3.837
2019-04-05T10:39:15.990Z,8.512
2019-04-05T10:42:15.308Z,5.338
2019-04-05T10:45:15.566Z,6.250
2019-04-05T10:48:15.721Z,6.575
2019-04-05T10:51:15.989Z,3.075
2019-04-05T10:54:15.079Z,4.425
2019-04-05T10:57:15.985Z,5.138
2019-04-05T11:00:16.010Z,7.950
2019-04-05T11:03:15.863Z,6.287
2019-04-05T11:06:15.240Z,10.500
2019-04-05T11:09:16.024Z,8.688
2019-04-05T11:12:15.516Z,8.425
2019-04-05T11:15:15.399Z,7.137
2019-04-05T11:18:15.820Z,4.425
2019-04-05T11:21:16.276Z,5.088
2019-04-05T11:24:15.835Z,4.637
2019-04-05T11:27:15.105Z,4.188
2019-04-05T11:30:15.870Z,3.663
2019-04-05T11:33:15.521Z,5.975
2019-04-05T11:36:15.158Z,3.925
2019-04-05T11:39:15.599Z,7.075
2019-04-05T11:42:15.404Z,6.112
2019-04-05T11:45:15.924Z,5.375
2019-04-05T11:48:15.764Z,8.038
2019-04-05T11:51:15.661Z,8.688
2019-04-05T11:54:18.318Z,12.050
2019-04-05T11:57:15.996Z,10.150
2019-04-05T12:00:15.891Z,7.275
2019-04-05T12:03:15.589Z,8.212
2019-04-05T12:06:15.818Z,7.012
2019-04-05T12:09:15.413Z,7.375
2019-04-05T12:12:15.541Z,8.788
2019-04-05T12:15:15.735Z,9.962
2019-04-05T12:18:19.136Z,5.812
2019-04-05T12:21:15.048Z,6.688
2019-04-05T12:24:15.612Z,3.300
2019-04-05T12:27:15.525Z,5.925
2019-04-05T12:30:15.625Z,2.750
2019-04-05T12:33:19.324Z,9.000
2019-04-05T12:36:15.880Z,4.450
2019-04-05T12:39:15.550Z,6.075
2019-04-05T12:42:15.852Z,8.100
2019-04-05T12:45:15.573Z,5.800
2019-04-05T12:48:16.535Z,7.187
2019-04-05T12:51:16.296Z,4.300
2019-04-05T12:54:14.975Z,4.725
2019-04-05T12:57:15.555Z,6.037
2019-04-05T13:00:15.741Z,6.438
2019-04-05T13:03:15.342Z,4.912
2019-04-05T13:06:15.138Z,8.938
2019-04-05T13:09:15.803Z,5.612
2019-04-05T13:12:15.706Z,5.200
2019-04-05T13:15:17.146Z,5.625
2019-04-05T13:18:15.812Z,5.050
2019-04-05T13:21:15.683Z,4.450
2019-04-05T13:24:15.685Z,10.312
2019-04-05T13:27:15.233Z,12.975
2019-04-05T13:30:18.310Z,6.587
2019-04-05T13:33:15.211Z,8.025
2019-04-05T13:36:15.703Z,6.288
2019-04-05T13:39:15.276Z,11.588
2019-04-05T13:42:15.839Z,7.237
2019-04-05T13:45:15.932Z,8.325
2019-04-05T13:48:15.227Z,7.750
2019-04-05T13:51:27.311Z,7.750
2019-04-05T13:54:15.463Z,6.375
2019-04-05T13:57:15.744Z,5.363
2019-04-05T14:00:18.213Z,4.600
2019-04-05T14:03:15.140Z,4.325
2019-04-05T14:06:15.904Z,7.713
2019-04-05T14:09:15.945Z,6.900
2019-04-05T14:12:15.341Z,9.037
2019-04-05T14:15:16.025Z,7.812
2019-04-05T14:18:15.533Z,8.338
2019-04-05T14:21:15.811Z,12.162
2019-04-05T14:24:15.161Z,10.500
2019-04-05T14:27:15.885Z,10.038
2019-04-05T14:30:15.822Z,6.562
2019-04-05T14:33:15.531Z,8.525
2019-04-05T14:36:15.621Z,6.862
2019-04-05T14:39:15.683Z,7.838
2019-04-05T14:42:15.881Z,5.575
2019-04-05T14:45:15.468Z,11.287
2019-04-05T14:48:15.489Z,6.688
2019-04-05T14:51:15.510Z,5.475
2019-04-05T14:54:15.059Z,5.538
2019-04-05T14:57:15.457Z,12.137
2019-04-05T15:00:15.835Z,8.750
2019-04-05T15:03:15.724Z,6.838
2019-04-05T15:06:15.501Z,6.938
2019-04-05T15:09:15.717Z,8.675
2019-04-05T15:12:14.876Z,7.988
2019-04-05T15:15:15.119Z,11.400
2019-04-05T15:18:15.909Z,8.837
2019-04-05T15:21:15.671Z,7.513
2019-04-05T15:24:16.749Z,12.575
2019-04-05T15:27:15.197Z,15.000
2019-04-05T15:30:15.873Z,12.800
2019-04-05T15:33:15.713Z,10.088
2019-04-05T15:36:15.726Z,8.825
2019-04-05T15:39:15.879Z,12.188
2019-04-05T15:42:15.001Z,7.938
2019-04-05T15:45:16.604Z,15.963
2019-04-05T15:48:15.772Z,10.075
2019-04-05T15:51:15.395Z,9.950
2019-04-05T15:54:14.948Z,13.638
2019-04-05T15:57:15.089Z,12.062
2019-04-05T16:00:15.495Z,7.763
2019-04-05T16:03:15.763Z,8.787
2019-04-05T16:06:15.267Z,13.312
2019-04-05T16:09:15.006Z,9.800
2019-04-05T16:12:15.950Z,8.025
2019-04-05T16:15:15.484Z,10.425
2019-04-05T16:18:15.550Z,10.887
2019-04-05T16:21:15.733Z,9.037
2019-04-05T16:24:15.092Z,15.363
2019-04-05T16:27:15.730Z,12.037
2019-04-05T16:30:15.803Z,10.625
2019-04-05T16:33:15.426Z,11.588
2019-04-05T16:36:15.678Z,8.000
2019-04-05T16:39:15.698Z,12.863
2019-04-05T16:42:15.693Z,9.475
2019-04-05T16:45:15.702Z,7.912
2019-04-05T16:48:15.753Z,14.425
2019-04-05T16:51:16.008Z,12.075
2019-04-05T16:54:15.812Z,6.175
2019-04-05T16:57:15.035Z,9.875
2019-04-05T17:00:15.537Z,11.387
2019-04-05T17:03:15.409Z,6.938
2019-04-05T17:06:14.944Z,9.000
2019-04-05T17:09:15.747Z,7.425
2019-04-05T17:12:15.111Z,7.900
2019-04-05T17:15:15.863Z,7.275
2019-04-05T17:18:15.569Z,9.750
2019-04-05T17:21:15.625Z,10.837
2019-04-05T17:24:15.561Z,13.287
2019-04-05T17:27:15.376Z,9.262
2019-04-05T17:30:15.112Z,9.425
2019-04-05T17:33:15.826Z,15.625
2019-04-05T17:36:15.894Z,12.725
2019-04-05T17:39:15.424Z,11.738
2019-04-05T17:42:15.181Z,13.312
2019-04-05T17:45:15.022Z,9.113
2019-04-05T17:48:15.730Z,7.575
2019-04-05T17:51:15.731Z,7.250
2019-04-05T17:54:14.994Z,9.338
2019-04-05T17:57:15.837Z,7.050
2019-04-05T18:00:15.142Z,10.688
2019-04-05T18:03:15.034Z,5.787
2019-04-05T18:06:15.791Z,8.775
2019-04-05T18:09:15.954Z,11.875
2019-04-05T18:12:15.352Z,7.688
2019-04-05T18:15:14.970Z,8.300
2019-04-05T18:18:15.896Z,14.238
2019-04-05T18:21:15.681Z,8.525
2019-04-05T18:24:15.885Z,6.838
2019-04-05T18:27:15.283Z,7.850
2019-04-05T18:30:15.785Z,4.412
2019-04-05T18:33:15.913Z,4.662
2019-04-05T18:36:15.075Z,10.250
2019-04-05T18:39:15.771Z,6.537
2019-04-05T18:42:15.102Z,8.012
2019-04-05T18:45:15.900Z,10.062
2019-04-05T18:48:14.973Z,7.075
2019-04-05T18:51:15.755Z,6.537
2019-04-05T18:54:15.875Z,9.762
2019-04-05T18:57:15.132Z,8.875
2019-04-05T19:00:15.787Z,8.738
2019-04-05T19:03:14.972Z,8.600
2019-04-05T19:06:15.681Z,18.100
2019-04-05T19:09:15.835Z,11.512
2019-04-05T19:12:15.905Z,12.663
2019-04-05T19:15:15.262Z,8.863
2019-04-05T19:18:15.122Z,11.050
2019-04-05T19:21:15.203Z,19.188
2019-04-05T19:24:15.825Z,8.988
2019-04-05T19:27:15.295Z,14.163
2019-04-05T19:48:30.635Z,22.837
2019-04-05T19:51:15.829Z,17.288
2019-04-05T19:54:15.133Z,20.650
2019-04-05T19:57:15.794Z,8.750
2019-04-05T20:00:15.973Z,12.900
2019-04-05T20:03:15.509Z,16.425
2019-04-05T20:06:15.243Z,15.363
2019-04-05T20:09:16.007Z,10.875
2019-04-05T20:12:15.251Z,15.950
2019-04-05T20:15:15.855Z,8.762
2019-04-05T20:18:15.959Z,14.162
2019-04-05T20:21:15.308Z,10.637
2019-04-05T20:24:14.952Z,12.400
2019-04-05T20:27:15.751Z,16.300
2019-04-05T20:30:15.652Z,11.613
2019-04-05T20:33:15.777Z,16.950
2019-04-05T20:36:15.815Z,11.225
2019-04-05T20:39:15.748Z,13.887
2019-04-05T20:42:15.645Z,15.812
2019-04-05T20:45:15.150Z,13.350
2019-04-05T20:48:15.773Z,11.838
2019-04-05T20:51:15.780Z,12.675
2019-04-05T20:54:24.203Z,16.587
2019-04-05T20:57:15.716Z,19.363
2019-04-05T21:00:15.587Z,18.613
2019-04-05T21:03:15.146Z,14.475
2019-04-05T21:06:17.233Z,22.538
2019-04-05T21:09:15.265Z,12.725
2019-04-05T21:12:15.024Z,12.500
2019-04-05T21:15:20.825Z,20.775
2019-04-05T21:18:15.696Z,11.363
2019-04-05T21:21:15.223Z,11.700
2019-04-05T21:24:15.323Z,11.238
2019-04-05T21:27:14.972Z,8.162
2019-04-05T21:30:15.704Z,10.575
2019-04-05T21:33:15.882Z,15.662
2019-04-05T21:36:15.785Z,23.150
2019-04-05T21:39:15.512Z,16.250
2019-04-05T21:42:14.916Z,13.837
2019-04-05T21:45:15.705Z,8.175
2019-04-05T21:48:15.281Z,8.075
2019-04-05T21:51:15.449Z,17.375
2019-04-05T21:54:15.127Z,14.725
2019-04-05T21:57:15.795Z,11.762
2019-04-05T22:00:15.493Z,15.062
2019-04-05T22:03:15.543Z,11.000
2019-04-05T22:06:15.253Z,8.200
2019-04-05T22:09:15.928Z,4.588
2019-04-05T22:12:14.909Z,7.413
2019-04-05T22:15:15.798Z,15.250
2019-04-05T22:18:15.721Z,15.812
2019-04-05T22:21:15.676Z,22.275
2019-04-05T22:24:15.371Z,17.538
2019-04-05T22:27:16.047Z,10.788
2019-04-05T22:30:15.240Z,15.325
2019-04-05T22:33:14.976Z,23.938
2019-04-05T22:36:15.822Z,13.425
2019-04-05T22:39:15.599Z,16.550
2019-04-05T22:42:15.122Z,14.950
2019-04-05T22:45:15.031Z,11.150
2019-04-05T22:48:15.743Z,15.000
2019-04-05T22:51:15.380Z,15.713
2019-04-05T22:54:15.908Z,13.738
2019-04-05T22:57:15.816Z,14.138
2019-04-05T23:00:15.482Z,13.575
2019-04-05T23:03:14.988Z,17.713
2019-04-05T23:06:15.638Z,18.525
2019-04-05T23:09:15.337Z,13.600
2019-04-05T23:12:15.878Z,10.625
2019-04-05T23:15:15.699Z,17.788
2019-04-05T23:18:15.079Z,13.825
2019-04-05T23:21:15.805Z,20.425
2019-04-05T23:24:15.743Z,15.300
2019-04-05T23:27:15.735Z,13.288
2019-04-05T23:30:15.600Z,15.363
2019-04-05T23:33:15.511Z,19.938
2019-04-05T23:36:15.091Z,14.175
2019-04-05T23:39:15.637Z,12.275
2019-04-05T23:42:15.297Z,14.113
2019-04-05T23:45:15.023Z,15.950
2019-04-05T23:48:15.644Z,15.938
2019-04-05T23:51:15.318Z,21.312
2019-04-05T23:54:15.863Z,18.725
2019-04-05T23:57:15.176Z,17.025
